sensor_id;sensor_type;location;lat;lon;timestamp;temperature;humidity
72355;SHT30;60314;55.040;73.076;2023-03-01T00:04:56;0.78;86.22
72355;SHT30;60314;55.040;73.076;2023-03-01T00:09:57;0.82;86.16
72355;SHT30;60314;55.040;73.076;2023-03-01T00:14:59;0.79;86.22
72355;SHT30;60314;55.040;73.076;2023-03-01T00:20:00;0.79;86.38
72355;SHT30;60314;55.040;73.076;2023-03-01T00:25:02;0.84;86.45
72355;SHT30;60314;55.040;73.076;2023-03-01T00:30:09;0.84;86.41
72355;SHT30;60314;55.040;73.076;2023-03-01T00:35:10;0.88;86.46
72355;SHT30;60314;55.040;73.076;2023-03-01T00:40:12;0.88;86.60
72355;SHT30;60314;55.040;73.076;2023-03-01T00:45:23;0.91;86.65
72355;SHT30;60314;55.040;73.076;2023-03-01T00:50:25;0.95;86.70
72355;SHT30;60314;55.040;73.076;2023-03-01T00:55:26;0.93;86.67
72355;SHT30;60314;55.040;73.076;2023-03-01T01:00:27;0.97;86.50
72355;SHT30;60314;55.040;73.076;2023-03-01T01:05:29;1.03;86.05
72355;SHT30;60314;55.040;73.076;2023-03-01T01:10:30;1.03;85.79
72355;SHT30;60314;55.040;73.076;2023-03-01T01:15:34;1.07;85.37
72355;SHT30;60314;55.040;73.076;2023-03-01T01:20:36;1.12;84.95
72355;SHT30;60314;55.040;73.076;2023-03-01T01:25:48;1.09;84.97
72355;SHT30;60314;55.040;73.076;2023-03-01T01:30:54;1.10;85.01
72355;SHT30;60314;55.040;73.076;2023-03-01T01:36:06;1.07;84.88
72355;SHT30;60314;55.040;73.076;2023-03-01T01:41:08;1.07;84.68
72355;SHT30;60314;55.040;73.076;2023-03-01T01:46:25;1.06;84.07
72355;SHT30;60314;55.040;73.076;2023-03-01T01:52:06;1.06;84.33
72355;SHT30;60314;55.040;73.076;2023-03-01T01:57:09;1.02;84.54
72355;SHT30;60314;55.040;73.076;2023-03-01T02:02:11;1.03;84.17
72355;SHT30;60314;55.040;73.076;2023-03-01T02:07:22;1.05;83.84
72355;SHT30;60314;55.040;73.076;2023-03-01T02:12:31;1.06;82.73
72355;SHT30;60314;55.040;73.076;2023-03-01T02:17:32;1.10;83.11
72355;SHT30;60314;55.040;73.076;2023-03-01T02:22:44;1.12;83.43
72355;SHT30;60314;55.040;73.076;2023-03-01T02:32:48;1.17;83.97
72355;SHT30;60314;55.040;73.076;2023-03-01T02:37:51;1.17;84.29
72355;SHT30;60314;55.040;73.076;2023-03-01T02:42:57;1.23;84.41
72355;SHT30;60314;55.040;73.076;2023-03-01T02:48:04;1.27;84.46
72355;SHT30;60314;55.040;73.076;2023-03-01T02:58:12;1.42;83.77
72355;SHT30;60314;55.040;73.076;2023-03-01T03:03:16;1.47;83.45
72355;SHT30;60314;55.040;73.076;2023-03-01T03:08:29;1.58;83.02
72355;SHT30;60314;55.040;73.076;2023-03-01T03:13:30;1.66;82.66
72355;SHT30;60314;55.040;73.076;2023-03-01T03:18:31;1.71;82.82
72355;SHT30;60314;55.040;73.076;2023-03-01T03:23:33;1.74;82.89
72355;SHT30;60314;55.040;73.076;2023-03-01T03:28:34;1.81;83.13
72355;SHT30;60314;55.040;73.076;2023-03-01T03:33:35;1.85;83.40
72355;SHT30;60314;55.040;73.076;2023-03-01T03:38:38;1.91;83.61
72355;SHT30;60314;55.040;73.076;2023-03-01T03:44:02;1.98;84.03
72355;SHT30;60314;55.040;73.076;2023-03-01T03:49:09;2.02;84.16
72355;SHT30;60314;55.040;73.076;2023-03-01T03:54:15;2.11;84.21
72355;SHT30;60314;55.040;73.076;2023-03-01T03:59:18;2.15;84.66
72355;SHT30;60314;55.040;73.076;2023-03-01T04:04:29;2.24;84.89
72355;SHT30;60314;55.040;73.076;2023-03-01T04:09:31;2.28;85.53
72355;SHT30;60314;55.040;73.076;2023-03-01T04:14:32;2.30;86.21
72355;SHT30;60314;55.040;73.076;2023-03-01T04:19:34;2.29;86.70
72355;SHT30;60314;55.040;73.076;2023-03-01T04:24:42;2.26;86.82
72355;SHT30;60314;55.040;73.076;2023-03-01T04:29:53;2.33;86.74
72355;SHT30;60314;55.040;73.076;2023-03-01T04:34:54;2.38;86.43
72355;SHT30;60314;55.040;73.076;2023-03-01T04:39:56;2.46;85.89
72355;SHT30;60314;55.040;73.076;2023-03-01T04:44:57;2.50;85.70
72355;SHT30;60314;55.040;73.076;2023-03-01T04:49:58;2.57;85.37
72355;SHT30;60314;55.040;73.076;2023-03-01T04:55:00;2.75;84.93
72355;SHT30;60314;55.040;73.076;2023-03-01T05:00:03;2.80;84.42
72355;SHT30;60314;55.040;73.076;2023-03-01T05:05:32;2.77;84.50
72355;SHT30;60314;55.040;73.076;2023-03-01T05:10:34;2.83;84.22
72355;SHT30;60314;55.040;73.076;2023-03-01T05:15:36;2.83;84.12
72355;SHT30;60314;55.040;73.076;2023-03-01T05:20:48;2.83;84.26
72355;SHT30;60314;55.040;73.076;2023-03-01T05:25:50;2.93;84.13
72355;SHT30;60314;55.040;73.076;2023-03-01T05:30:58;2.97;83.59
72355;SHT30;60314;55.040;73.076;2023-03-01T05:36:05;2.93;83.65
72355;SHT30;60314;55.040;73.076;2023-03-01T05:41:13;2.84;84.11
72355;SHT30;60314;55.040;73.076;2023-03-01T05:46:14;2.93;83.90
72355;SHT30;60314;55.040;73.076;2023-03-01T05:51:55;3.07;83.23
72355;SHT30;60314;55.040;73.076;2023-03-01T05:56:56;3.07;83.16
72355;SHT30;60314;55.040;73.076;2023-03-01T06:01:58;3.14;82.89
72355;SHT30;60314;55.040;73.076;2023-03-01T06:06:59;3.28;82.49
72355;SHT30;60314;55.040;73.076;2023-03-01T06:12:05;3.41;81.96
72355;SHT30;60314;55.040;73.076;2023-03-01T06:17:16;3.30;81.85
72355;SHT30;60314;55.040;73.076;2023-03-01T06:22:18;3.31;81.75
72355;SHT30;60314;55.040;73.076;2023-03-01T06:27:24;3.27;81.96
72355;SHT30;60314;55.040;73.076;2023-03-01T06:32:25;3.30;81.81
72355;SHT30;60314;55.040;73.076;2023-03-01T06:37:32;3.31;81.90
72355;SHT30;60314;55.040;73.076;2023-03-01T06:42:38;3.22;82.20
72355;SHT30;60314;55.040;73.076;2023-03-01T06:47:39;3.18;82.09
72355;SHT30;60314;55.040;73.076;2023-03-01T06:52:41;3.28;81.93
72355;SHT30;60314;55.040;73.076;2023-03-01T06:57:42;3.15;81.98
72355;SHT30;60314;55.040;73.076;2023-03-01T07:02:43;2.99;82.64
72355;SHT30;60314;55.040;73.076;2023-03-01T07:07:44;2.96;82.75
72355;SHT30;60314;55.040;73.076;2023-03-01T07:12:46;3.00;82.38
72355;SHT30;60314;55.040;73.076;2023-03-01T07:17:47;3.05;82.43
72355;SHT30;60314;55.040;73.076;2023-03-01T07:22:51;3.15;81.85
72355;SHT30;60314;55.040;73.076;2023-03-01T07:27:53;3.28;81.41
72355;SHT30;60314;55.040;73.076;2023-03-01T07:32:55;3.32;80.87
72355;SHT30;60314;55.040;73.076;2023-03-01T07:37:57;3.30;80.95
72355;SHT30;60314;55.040;73.076;2023-03-01T07:42:58;3.35;80.85
72355;SHT30;60314;55.040;73.076;2023-03-01T07:48:00;3.27;80.99
72355;SHT30;60314;55.040;73.076;2023-03-01T07:53:01;3.22;81.10
72355;SHT30;60314;55.040;73.076;2023-03-01T07:58:03;3.17;81.28
72355;SHT30;60314;55.040;73.076;2023-03-01T08:03:09;3.15;81.61
72355;SHT30;60314;55.040;73.076;2023-03-01T08:08:11;3.12;82.04
72355;SHT30;60314;55.040;73.076;2023-03-01T08:13:22;3.18;82.24
72355;SHT30;60314;55.040;73.076;2023-03-01T08:18:34;3.17;82.84
72355;SHT30;60314;55.040;73.076;2023-03-01T08:23:35;3.14;83.42
72355;SHT30;60314;55.040;73.076;2023-03-01T08:28:37;3.07;83.97
72355;SHT30;60314;55.040;73.076;2023-03-01T08:33:39;3.00;84.12
72355;SHT30;60314;55.040;73.076;2023-03-01T08:38:50;2.94;84.55
72355;SHT30;60314;55.040;73.076;2023-03-01T08:43:52;2.89;84.72
72355;SHT30;60314;55.040;73.076;2023-03-01T08:48:53;2.89;85.08
72355;SHT30;60314;55.040;73.076;2023-03-01T08:53:55;2.91;84.90
72355;SHT30;60314;55.040;73.076;2023-03-01T08:59:02;2.94;84.84
72355;SHT30;60314;55.040;73.076;2023-03-01T09:04:03;3.00;84.75
72355;SHT30;60314;55.040;73.076;2023-03-01T09:09:05;3.07;84.70
72355;SHT30;60314;55.040;73.076;2023-03-01T09:14:07;3.03;84.56
72355;SHT30;60314;55.040;73.076;2023-03-01T09:19:10;2.94;84.91
72355;SHT30;60314;55.040;73.076;2023-03-01T09:24:12;2.94;85.09
72355;SHT30;60314;55.040;73.076;2023-03-01T09:29:15;3.10;84.74
72355;SHT30;60314;55.040;73.076;2023-03-01T09:34:16;3.24;84.44
72355;SHT30;60314;55.040;73.076;2023-03-01T09:39:29;3.34;83.67
72355;SHT30;60314;55.040;73.076;2023-03-01T09:44:32;3.48;83.37
72355;SHT30;60314;55.040;73.076;2023-03-01T09:49:35;3.27;83.50
72355;SHT30;60314;55.040;73.076;2023-03-01T09:54:42;3.15;83.72
72355;SHT30;60314;55.040;73.076;2023-03-01T09:59:54;2.97;84.01
72355;SHT30;60314;55.040;73.076;2023-03-01T10:05:00;2.89;84.43
72355;SHT30;60314;55.040;73.076;2023-03-01T10:10:06;2.81;84.78
72355;SHT30;60314;55.040;73.076;2023-03-01T10:15:19;2.76;85.27
72355;SHT30;60314;55.040;73.076;2023-03-01T10:20:26;2.69;85.24
72355;SHT30;60314;55.040;73.076;2023-03-01T10:30:47;2.60;85.67
72355;SHT30;60314;55.040;73.076;2023-03-01T10:35:49;2.57;85.87
72355;SHT30;60314;55.040;73.076;2023-03-01T10:41:04;2.60;85.79
72355;SHT30;60314;55.040;73.076;2023-03-01T10:46:21;2.60;85.92
72355;SHT30;60314;55.040;73.076;2023-03-01T10:51:55;2.48;86.16
72355;SHT30;60314;55.040;73.076;2023-03-01T10:57:00;2.39;86.47
72355;SHT30;60314;55.040;73.076;2023-03-01T11:02:29;2.35;86.89
72355;SHT30;60314;55.040;73.076;2023-03-01T11:07:31;2.29;87.12
72355;SHT30;60314;55.040;73.076;2023-03-01T11:12:47;2.24;87.40
72355;SHT30;60314;55.040;73.076;2023-03-01T11:17:54;2.17;87.85
72355;SHT30;60314;55.040;73.076;2023-03-01T11:22:57;2.11;88.04
72355;SHT30;60314;55.040;73.076;2023-03-01T11:28:06;2.08;88.23
72355;SHT30;60314;55.040;73.076;2023-03-01T11:38:23;1.97;88.49
72355;SHT30;60314;55.040;73.076;2023-03-01T11:53:47;2.08;88.49
72355;SHT30;60314;55.040;73.076;2023-03-01T12:04:43;2.07;88.46
72355;SHT30;60314;55.040;73.076;2023-03-01T12:30:46;2.04;88.82
72355;SHT30;60314;55.040;73.076;2023-03-01T12:52:23;1.95;89.42
72355;SHT30;60314;55.040;73.076;2023-03-01T12:57:32;1.89;89.65
72355;SHT30;60314;55.040;73.076;2023-03-01T13:08:02;1.91;89.83
72355;SHT30;60314;55.040;73.076;2023-03-01T13:13:11;1.97;89.76
72355;SHT30;60314;55.040;73.076;2023-03-01T13:43:52;2.05;89.26
72355;SHT30;60314;55.040;73.076;2023-03-01T13:48:54;2.02;89.06
72355;SHT30;60314;55.040;73.076;2023-03-01T13:53:57;2.04;89.05
72355;SHT30;60314;55.040;73.076;2023-03-01T13:59:18;2.04;89.01
72355;SHT30;60314;55.040;73.076;2023-03-01T14:04:21;2.04;88.98
72355;SHT30;60314;55.040;73.076;2023-03-01T14:09:30;2.02;88.96
72355;SHT30;60314;55.040;73.076;2023-03-01T14:19:48;2.08;88.43
72355;SHT30;60314;55.040;73.076;2023-03-01T14:25:02;2.09;88.51
72355;SHT30;60314;55.040;73.076;2023-03-01T14:30:10;2.08;88.40
72355;SHT30;60314;55.040;73.076;2023-03-01T14:35:20;2.09;88.21
72355;SHT30;60314;55.040;73.076;2023-03-01T14:45:33;2.21;87.54
72355;SHT30;60314;55.040;73.076;2023-03-01T14:50:35;2.24;87.28
72355;SHT30;60314;55.040;73.076;2023-03-01T14:55:38;2.22;87.12
72355;SHT30;60314;55.040;73.076;2023-03-01T15:00:47;2.24;86.92
72355;SHT30;60314;55.040;73.076;2023-03-01T15:05:49;2.25;86.87
72355;SHT30;60314;55.040;73.076;2023-03-01T15:11:05;2.26;86.83
72355;SHT30;60314;55.040;73.076;2023-03-01T15:16:07;2.24;86.82
72355;SHT30;60314;55.040;73.076;2023-03-01T15:21:17;2.30;86.66
72355;SHT30;60314;55.040;73.076;2023-03-01T15:26:57;2.32;86.49
72355;SHT30;60314;55.040;73.076;2023-03-01T15:32:04;2.33;86.46
72355;SHT30;60314;55.040;73.076;2023-03-01T15:37:06;2.35;86.38
72355;SHT30;60314;55.040;73.076;2023-03-01T15:47:40;2.33;86.25
72355;SHT30;60314;55.040;73.076;2023-03-01T15:52:46;2.32;86.28
72355;SHT30;60314;55.040;73.076;2023-03-01T15:57:48;2.29;86.33
72355;SHT30;60314;55.040;73.076;2023-03-01T16:03:05;2.28;86.18
72355;SHT30;60314;55.040;73.076;2023-03-01T16:08:14;2.25;86.45
72355;SHT30;60314;55.040;73.076;2023-03-01T16:13:20;2.19;86.59
72355;SHT30;60314;55.040;73.076;2023-03-01T16:18:31;2.21;86.63
72355;SHT30;60314;55.040;73.076;2023-03-01T16:23:43;2.21;86.55
72355;SHT30;60314;55.040;73.076;2023-03-01T16:28:45;2.21;86.50
72355;SHT30;60314;55.040;73.076;2023-03-01T16:33:52;2.24;86.46
72355;SHT30;60314;55.040;73.076;2023-03-01T16:38:54;2.22;86.46
72355;SHT30;60314;55.040;73.076;2023-03-01T16:44:02;2.24;86.57
72355;SHT30;60314;55.040;73.076;2023-03-01T16:49:04;2.22;86.44
72355;SHT30;60314;55.040;73.076;2023-03-01T16:54:11;2.25;86.42
72355;SHT30;60314;55.040;73.076;2023-03-01T16:59:12;2.24;86.44
72355;SHT30;60314;55.040;73.076;2023-03-01T17:04:13;2.28;86.36
72355;SHT30;60314;55.040;73.076;2023-03-01T17:09:15;2.24;86.34
72355;SHT30;60314;55.040;73.076;2023-03-01T17:14:17;2.26;86.41
72355;SHT30;60314;55.040;73.076;2023-03-01T17:19:19;2.25;86.40
72355;SHT30;60314;55.040;73.076;2023-03-01T17:24:20;2.26;86.24
72355;SHT30;60314;55.040;73.076;2023-03-01T17:29:22;2.25;86.21
72355;SHT30;60314;55.040;73.076;2023-03-01T17:34:23;2.30;85.76
72355;SHT30;60314;55.040;73.076;2023-03-01T17:39:25;2.33;85.56
72355;SHT30;60314;55.040;73.076;2023-03-01T17:44:31;2.38;85.27
72355;SHT30;60314;55.040;73.076;2023-03-01T17:49:39;2.36;85.19
72355;SHT30;60314;55.040;73.076;2023-03-01T17:54:40;2.38;85.05
72355;SHT30;60314;55.040;73.076;2023-03-01T17:59:41;2.35;84.90
72355;SHT30;60314;55.040;73.076;2023-03-01T18:04:43;2.38;84.70
72355;SHT30;60314;55.040;73.076;2023-03-01T18:09:49;2.36;84.74
72355;SHT30;60314;55.040;73.076;2023-03-01T18:15:09;2.30;84.95
72355;SHT30;60314;55.040;73.076;2023-03-01T18:20:11;2.30;84.79
72355;SHT30;60314;55.040;73.076;2023-03-01T18:25:13;2.29;84.89
72355;SHT30;60314;55.040;73.076;2023-03-01T18:30:14;2.25;84.96
72355;SHT30;60314;55.040;73.076;2023-03-01T18:35:25;2.24;84.91
72355;SHT30;60314;55.040;73.076;2023-03-01T18:40:30;2.22;85.00
72355;SHT30;60314;55.040;73.076;2023-03-01T18:45:34;2.21;85.00
72355;SHT30;60314;55.040;73.076;2023-03-01T18:50:35;2.21;84.91
72355;SHT30;60314;55.040;73.076;2023-03-01T18:55:37;2.17;85.04
72355;SHT30;60314;55.040;73.076;2023-03-01T19:00:38;2.18;84.99
72355;SHT30;60314;55.040;73.076;2023-03-01T19:05:40;2.11;85.16
72355;SHT30;60314;55.040;73.076;2023-03-01T19:10:41;2.12;85.16
72355;SHT30;60314;55.040;73.076;2023-03-01T19:15:47;2.11;84.95
72355;SHT30;60314;55.040;73.076;2023-03-01T19:20:48;2.14;84.49
72355;SHT30;60314;55.040;73.076;2023-03-01T19:25:50;2.14;84.51
72355;SHT30;60314;55.040;73.076;2023-03-01T19:30:56;2.11;84.61
72355;SHT30;60314;55.040;73.076;2023-03-01T19:36:07;2.12;84.71
72355;SHT30;60314;55.040;73.076;2023-03-01T19:41:10;2.14;84.17
72355;SHT30;60314;55.040;73.076;2023-03-01T19:46:55;2.15;84.08
72355;SHT30;60314;55.040;73.076;2023-03-01T19:52:04;2.12;84.04
72355;SHT30;60314;55.040;73.076;2023-03-01T19:57:05;2.14;84.07
72355;SHT30;60314;55.040;73.076;2023-03-01T20:02:12;2.15;84.32
72355;SHT30;60314;55.040;73.076;2023-03-01T20:07:19;2.17;84.49
72355;SHT30;60314;55.040;73.076;2023-03-01T20:12:20;2.14;84.79
72355;SHT30;60314;55.040;73.076;2023-03-01T20:17:22;2.09;86.16
72355;SHT30;60314;55.040;73.076;2023-03-01T20:22:34;2.04;86.84
72355;SHT30;60314;55.040;73.076;2023-03-01T20:27:35;1.99;87.50
72355;SHT30;60314;55.040;73.076;2023-03-01T20:32:37;1.95;87.78
72355;SHT30;60314;55.040;73.076;2023-03-01T20:37:51;1.93;87.48
72355;SHT30;60314;55.040;73.076;2023-03-01T20:42:58;1.97;87.30
72355;SHT30;60314;55.040;73.076;2023-03-01T20:48:09;1.93;87.17
72355;SHT30;60314;55.040;73.076;2023-03-01T20:53:11;1.88;88.01
72355;SHT30;60314;55.040;73.076;2023-03-01T20:58:17;1.74;89.25
72355;SHT30;60314;55.040;73.076;2023-03-01T21:03:18;1.73;89.39
72355;SHT30;60314;55.040;73.076;2023-03-01T21:08:25;1.79;88.81
72355;SHT30;60314;55.040;73.076;2023-03-01T21:13:27;1.88;87.35
72355;SHT30;60314;55.040;73.076;2023-03-01T21:18:39;1.94;86.59
72355;SHT30;60314;55.040;73.076;2023-03-01T21:23:50;1.98;85.84
72355;SHT30;60314;55.040;73.076;2023-03-01T21:28:58;2.02;84.59
72355;SHT30;60314;55.040;73.076;2023-03-01T21:34:10;2.02;84.76
72355;SHT30;60314;55.040;73.076;2023-03-01T21:39:12;2.02;84.15
72355;SHT30;60314;55.040;73.076;2023-03-01T21:44:14;2.02;84.13
72355;SHT30;60314;55.040;73.076;2023-03-01T21:49:16;2.05;84.03
72355;SHT30;60314;55.040;73.076;2023-03-01T21:54:22;2.02;83.76
72355;SHT30;60314;55.040;73.076;2023-03-01T21:59:23;2.04;83.81
72355;SHT30;60314;55.040;73.076;2023-03-01T22:04:25;2.08;82.20
72355;SHT30;60314;55.040;73.076;2023-03-01T22:09:26;2.07;80.20
72355;SHT30;60314;55.040;73.076;2023-03-01T22:14:28;2.02;80.49
72355;SHT30;60314;55.040;73.076;2023-03-01T22:19:34;1.94;77.82
72355;SHT30;60314;55.040;73.076;2023-03-01T22:24:36;1.87;78.23
72355;SHT30;60314;55.040;73.076;2023-03-01T22:29:42;1.81;77.36
72355;SHT30;60314;55.040;73.076;2023-03-01T22:34:44;1.75;75.29
72355;SHT30;60314;55.040;73.076;2023-03-01T22:39:47;1.70;76.10
72355;SHT30;60314;55.040;73.076;2023-03-01T22:44:48;1.70;75.76
72355;SHT30;60314;55.040;73.076;2023-03-01T22:49:53;1.63;75.76
72355;SHT30;60314;55.040;73.076;2023-03-01T22:54:59;1.57;74.14
72355;SHT30;60314;55.040;73.076;2023-03-01T23:00:00;1.46;73.89
72355;SHT30;60314;55.040;73.076;2023-03-01T23:05:02;1.36;73.89
72355;SHT30;60314;55.040;73.076;2023-03-01T23:10:04;1.25;74.93
72355;SHT30;60314;55.040;73.076;2023-03-01T23:15:07;1.12;75.34
72355;SHT30;60314;55.040;73.076;2023-03-01T23:20:09;1.09;76.16
72355;SHT30;60314;55.040;73.076;2023-03-01T23:25:10;1.06;77.23
72355;SHT30;60314;55.040;73.076;2023-03-01T23:30:19;1.05;77.92
72355;SHT30;60314;55.040;73.076;2023-03-01T23:35:31;0.76;79.02
72355;SHT30;60314;55.040;73.076;2023-03-01T23:40:37;0.51;79.25
72355;SHT30;60314;55.040;73.076;2023-03-01T23:45:39;0.41;79.56
72355;SHT30;60314;55.040;73.076;2023-03-01T23:50:53;0.30;79.49
72355;SHT30;60314;55.040;73.076;2023-03-01T23:56:04;0.17;78.88
